sensor_id;sensor_type;location;lat;lon;timestamp;P1;durP1;ratioP1;P2;durP2;ratioP2
73951;SDS011;62304;47.662;18.324;2022-09-27T00:00:04;19.43;;;10.73;;
73951;SDS011;62304;47.662;18.324;2022-09-27T00:03:12;17.93;;;10.73;;
73951;SDS011;62304;47.662;18.324;2022-09-27T00:06:21;18.60;;;10.85;;
73951;SDS011;62304;47.662;18.324;2022-09-27T00:09:25;17.87;;;10.07;;
73951;SDS011;62304;47.662;18.324;2022-09-27T00:12:31;20.08;;;10.05;;
73951;SDS011;62304;47.662;18.324;2022-09-27T00:15:34;18.23;;;10.23;;
73951;SDS011;62304;47.662;18.324;2022-09-27T00:18:38;18.30;;;10.73;;
73951;SDS011;62304;47.662;18.324;2022-09-27T00:21:41;23.00;;;11.77;;
73951;SDS011;62304;47.662;18.324;2022-09-27T00:24:44;21.05;;;11.40;;
73951;SDS011;62304;47.662;18.324;2022-09-27T00:27:47;19.58;;;11.50;;
73951;SDS011;62304;47.662;18.324;2022-09-27T00:30:52;27.53;;;13.33;;
73951;SDS011;62304;47.662;18.324;2022-09-27T00:33:57;27.00;;;14.13;;
73951;SDS011;62304;47.662;18.324;2022-09-27T00:37:02;24.77;;;12.90;;
73951;SDS011;62304;47.662;18.324;2022-09-27T00:40:05;25.70;;;13.65;;
73951;SDS011;62304;47.662;18.324;2022-09-27T00:43:14;30.55;;;12.98;;
73951;SDS011;62304;47.662;18.324;2022-09-27T00:46:18;29.23;;;13.40;;
73951;SDS011;62304;47.662;18.324;2022-09-27T00:49:38;31.37;;;13.67;;
73951;SDS011;62304;47.662;18.324;2022-09-27T00:52:58;26.05;;;13.00;;
73951;SDS011;62304;47.662;18.324;2022-09-27T00:56:26;22.87;;;12.15;;
73951;SDS011;62304;47.662;18.324;2022-09-27T00:59:33;27.95;;;12.95;;
73951;SDS011;62304;47.662;18.324;2022-09-27T01:02:45;28.37;;;13.63;;
73951;SDS011;62304;47.662;18.324;2022-09-27T01:05:51;26.10;;;12.63;;
73951;SDS011;62304;47.662;18.324;2022-09-27T01:08:56;26.55;;;12.13;;
73951;SDS011;62304;47.662;18.324;2022-09-27T01:15:36;23.87;;;11.02;;
73951;SDS011;62304;47.662;18.324;2022-09-27T01:24:55;29.33;;;12.52;;
73951;SDS011;62304;47.662;18.324;2022-09-27T01:28:20;29.73;;;12.70;;
73951;SDS011;62304;47.662;18.324;2022-09-27T01:42:44;31.20;;;11.93;;
73951;SDS011;62304;47.662;18.324;2022-09-27T01:46:02;25.83;;;12.32;;
73951;SDS011;62304;47.662;18.324;2022-09-27T01:49:21;32.42;;;12.52;;
73951;SDS011;62304;47.662;18.324;2022-09-27T01:52:39;31.77;;;13.00;;
73951;SDS011;62304;47.662;18.324;2022-09-27T01:55:50;28.50;;;12.40;;
73951;SDS011;62304;47.662;18.324;2022-09-27T01:59:01;34.03;;;12.25;;
73951;SDS011;62304;47.662;18.324;2022-09-27T02:02:09;33.95;;;13.95;;
73951;SDS011;62304;47.662;18.324;2022-09-27T02:05:17;34.13;;;13.05;;
73951;SDS011;62304;47.662;18.324;2022-09-27T02:11:37;26.43;;;11.07;;
73951;SDS011;62304;47.662;18.324;2022-09-27T02:14:47;29.45;;;12.27;;
73951;SDS011;62304;47.662;18.324;2022-09-27T02:18:00;28.45;;;12.02;;
73951;SDS011;62304;47.662;18.324;2022-09-27T02:21:06;27.05;;;11.68;;
73951;SDS011;62304;47.662;18.324;2022-09-27T02:24:18;27.83;;;11.70;;
73951;SDS011;62304;47.662;18.324;2022-09-27T02:27:27;28.17;;;11.60;;
73951;SDS011;62304;47.662;18.324;2022-09-27T02:30:39;30.80;;;11.57;;
73951;SDS011;62304;47.662;18.324;2022-09-27T02:33:51;32.80;;;11.75;;
73951;SDS011;62304;47.662;18.324;2022-09-27T02:36:59;30.42;;;11.52;;
73951;SDS011;62304;47.662;18.324;2022-09-27T02:40:02;25.87;;;10.60;;
73951;SDS011;62304;47.662;18.324;2022-09-27T02:43:06;29.77;;;12.03;;
73951;SDS011;62304;47.662;18.324;2022-09-27T02:56:07;29.47;;;10.90;;
73951;SDS011;62304;47.662;18.324;2022-09-27T02:59:19;33.67;;;11.87;;
73951;SDS011;62304;47.662;18.324;2022-09-27T03:02:40;27.87;;;11.43;;
73951;SDS011;62304;47.662;18.324;2022-09-27T03:05:51;26.00;;;11.85;;
73951;SDS011;62304;47.662;18.324;2022-09-27T03:09:03;22.37;;;10.82;;
73951;SDS011;62304;47.662;18.324;2022-09-27T03:12:06;23.70;;;10.70;;
73951;SDS011;62304;47.662;18.324;2022-09-27T03:15:09;23.00;;;11.80;;
73951;SDS011;62304;47.662;18.324;2022-09-27T03:18:16;24.73;;;12.35;;
73951;SDS011;62304;47.662;18.324;2022-09-27T03:21:23;30.45;;;13.02;;
73951;SDS011;62304;47.662;18.324;2022-09-27T03:24:26;26.10;;;11.65;;
73951;SDS011;62304;47.662;18.324;2022-09-27T03:27:29;24.73;;;11.40;;
73951;SDS011;62304;47.662;18.324;2022-09-27T03:30:32;26.93;;;11.97;;
73951;SDS011;62304;47.662;18.324;2022-09-27T03:33:35;22.37;;;10.77;;
73951;SDS011;62304;47.662;18.324;2022-09-27T03:36:39;28.50;;;12.18;;
73951;SDS011;62304;47.662;18.324;2022-09-27T03:39:41;26.00;;;11.32;;
73951;SDS011;62304;47.662;18.324;2022-09-27T03:42:44;21.87;;;10.87;;
73951;SDS011;62304;47.662;18.324;2022-09-27T03:45:51;22.43;;;10.70;;
73951;SDS011;62304;47.662;18.324;2022-09-27T03:48:54;19.02;;;10.75;;
73951;SDS011;62304;47.662;18.324;2022-09-27T03:51:57;19.85;;;10.45;;
73951;SDS011;62304;47.662;18.324;2022-09-27T03:55:00;20.95;;;11.43;;
73951;SDS011;62304;47.662;18.324;2022-09-27T03:58:04;19.87;;;10.37;;
73951;SDS011;62304;47.662;18.324;2022-09-27T04:01:08;20.10;;;10.07;;
73951;SDS011;62304;47.662;18.324;2022-09-27T04:04:11;22.52;;;9.88;;
73951;SDS011;62304;47.662;18.324;2022-09-27T04:07:14;24.98;;;11.18;;
73951;SDS011;62304;47.662;18.324;2022-09-27T04:10:20;15.80;;;9.77;;
73951;SDS011;62304;47.662;18.324;2022-09-27T04:13:23;21.00;;;10.10;;
73951;SDS011;62304;47.662;18.324;2022-09-27T04:16:26;20.60;;;10.20;;
73951;SDS011;62304;47.662;18.324;2022-09-27T04:19:29;18.27;;;9.77;;
73951;SDS011;62304;47.662;18.324;2022-09-27T04:22:33;16.77;;;9.77;;
73951;SDS011;62304;47.662;18.324;2022-09-27T04:25:36;19.67;;;10.07;;
73951;SDS011;62304;47.662;18.324;2022-09-27T04:28:42;15.27;;;9.53;;
73951;SDS011;62304;47.662;18.324;2022-09-27T04:31:46;19.73;;;9.77;;
73951;SDS011;62304;47.662;18.324;2022-09-27T04:34:50;22.23;;;10.55;;
73951;SDS011;62304;47.662;18.324;2022-09-27T04:38:12;19.77;;;10.90;;
73951;SDS011;62304;47.662;18.324;2022-09-27T04:41:18;18.65;;;9.85;;
73951;SDS011;62304;47.662;18.324;2022-09-27T04:44:22;19.27;;;10.90;;
73951;SDS011;62304;47.662;18.324;2022-09-27T04:47:26;18.33;;;12.23;;
73951;SDS011;62304;47.662;18.324;2022-09-27T04:50:29;21.23;;;11.20;;
73951;SDS011;62304;47.662;18.324;2022-09-27T04:53:37;18.48;;;10.98;;
73951;SDS011;62304;47.662;18.324;2022-09-27T04:56:40;18.70;;;11.30;;
73951;SDS011;62304;47.662;18.324;2022-09-27T04:59:44;22.10;;;11.43;;
73951;SDS011;62304;47.662;18.324;2022-09-27T05:02:46;20.03;;;11.67;;
73951;SDS011;62304;47.662;18.324;2022-09-27T05:05:51;19.92;;;11.15;;
73951;SDS011;62304;47.662;18.324;2022-09-27T05:08:54;25.10;;;12.60;;
73951;SDS011;62304;47.662;18.324;2022-09-27T05:11:57;20.52;;;11.10;;
73951;SDS011;62304;47.662;18.324;2022-09-27T05:15:01;21.13;;;11.47;;
73951;SDS011;62304;47.662;18.324;2022-09-27T05:18:07;18.63;;;10.50;;
73951;SDS011;62304;47.662;18.324;2022-09-27T05:21:14;26.00;;;12.68;;
73951;SDS011;62304;47.662;18.324;2022-09-27T05:24:18;29.73;;;14.87;;
73951;SDS011;62304;47.662;18.324;2022-09-27T05:27:21;26.90;;;15.20;;
73951;SDS011;62304;47.662;18.324;2022-09-27T05:30:28;23.37;;;12.87;;
73951;SDS011;62304;47.662;18.324;2022-09-27T05:33:35;21.33;;;13.27;;
73951;SDS011;62304;47.662;18.324;2022-09-27T05:36:39;33.20;;;15.60;;
73951;SDS011;62304;47.662;18.324;2022-09-27T05:39:42;39.45;;;16.50;;
73951;SDS011;62304;47.662;18.324;2022-09-27T05:42:47;30.60;;;15.20;;
73951;SDS011;62304;47.662;18.324;2022-09-27T05:45:51;30.80;;;15.40;;
73951;SDS011;62304;47.662;18.324;2022-09-27T05:48:55;29.60;;;15.37;;
73951;SDS011;62304;47.662;18.324;2022-09-27T05:51:57;27.10;;;14.00;;
73951;SDS011;62304;47.662;18.324;2022-09-27T05:55:01;28.62;;;15.68;;
73951;SDS011;62304;47.662;18.324;2022-09-27T05:58:06;28.95;;;14.13;;
73951;SDS011;62304;47.662;18.324;2022-09-27T06:01:10;28.03;;;14.60;;
73951;SDS011;62304;47.662;18.324;2022-09-27T06:04:14;33.67;;;15.90;;
73951;SDS011;62304;47.662;18.324;2022-09-27T06:07:18;48.58;;;18.77;;
73951;SDS011;62304;47.662;18.324;2022-09-27T06:10:22;53.30;;;20.27;;
73951;SDS011;62304;47.662;18.324;2022-09-27T06:13:25;34.90;;;16.37;;
73951;SDS011;62304;47.662;18.324;2022-09-27T06:16:28;22.57;;;13.63;;
73951;SDS011;62304;47.662;18.324;2022-09-27T06:19:31;25.57;;;14.93;;
73951;SDS011;62304;47.662;18.324;2022-09-27T06:22:34;26.77;;;14.50;;
73951;SDS011;62304;47.662;18.324;2022-09-27T06:25:38;26.67;;;14.40;;
73951;SDS011;62304;47.662;18.324;2022-09-27T06:28:43;22.52;;;13.95;;
73951;SDS011;62304;47.662;18.324;2022-09-27T06:31:46;22.07;;;13.10;;
73951;SDS011;62304;47.662;18.324;2022-09-27T06:34:49;27.47;;;13.63;;
73951;SDS011;62304;47.662;18.324;2022-09-27T06:37:52;19.02;;;10.38;;
73951;SDS011;62304;47.662;18.324;2022-09-27T06:40:59;21.27;;;12.45;;
73951;SDS011;62304;47.662;18.324;2022-09-27T06:44:03;21.05;;;11.40;;
73951;SDS011;62304;47.662;18.324;2022-09-27T06:47:09;19.33;;;11.33;;
73951;SDS011;62304;47.662;18.324;2022-09-27T06:50:13;18.43;;;10.37;;
73951;SDS011;62304;47.662;18.324;2022-09-27T06:53:18;20.10;;;11.27;;
73951;SDS011;62304;47.662;18.324;2022-09-27T06:56:21;19.10;;;11.27;;
73951;SDS011;62304;47.662;18.324;2022-09-27T06:59:24;17.60;;;10.90;;
73951;SDS011;62304;47.662;18.324;2022-09-27T07:02:51;15.90;;;10.67;;
73951;SDS011;62304;47.662;18.324;2022-09-27T07:05:56;28.27;;;12.67;;
73951;SDS011;62304;47.662;18.324;2022-09-27T07:09:01;18.45;;;10.85;;
73951;SDS011;62304;47.662;18.324;2022-09-27T07:12:05;19.67;;;11.50;;
73951;SDS011;62304;47.662;18.324;2022-09-27T07:15:08;18.60;;;11.95;;
73951;SDS011;62304;47.662;18.324;2022-09-27T07:18:11;18.57;;;10.90;;
73951;SDS011;62304;47.662;18.324;2022-09-27T07:21:15;19.63;;;10.97;;
73951;SDS011;62304;47.662;18.324;2022-09-27T07:24:18;16.73;;;11.12;;
73951;SDS011;62304;47.662;18.324;2022-09-27T07:27:23;19.55;;;11.23;;
73951;SDS011;62304;47.662;18.324;2022-09-27T07:30:27;19.35;;;11.38;;
73951;SDS011;62304;47.662;18.324;2022-09-27T07:33:31;14.40;;;8.53;;
73951;SDS011;62304;47.662;18.324;2022-09-27T07:36:35;17.30;;;10.57;;
73951;SDS011;62304;47.662;18.324;2022-09-27T07:39:38;15.65;;;10.35;;
73951;SDS011;62304;47.662;18.324;2022-09-27T07:42:41;20.58;;;11.30;;
73951;SDS011;62304;47.662;18.324;2022-09-27T07:45:44;22.75;;;10.85;;
73951;SDS011;62304;47.662;18.324;2022-09-27T07:48:49;22.13;;;10.93;;
73951;SDS011;62304;47.662;18.324;2022-09-27T07:51:53;19.87;;;11.70;;
73951;SDS011;62304;47.662;18.324;2022-09-27T07:54:59;21.65;;;11.68;;
73951;SDS011;62304;47.662;18.324;2022-09-27T07:58:09;19.98;;;12.05;;
73951;SDS011;62304;47.662;18.324;2022-09-27T08:01:13;21.05;;;12.18;;
73951;SDS011;62304;47.662;18.324;2022-09-27T08:04:16;15.23;;;8.50;;
73951;SDS011;62304;47.662;18.324;2022-09-27T08:07:20;21.30;;;11.03;;
73951;SDS011;62304;47.662;18.324;2022-09-27T08:10:25;18.50;;;9.20;;
73951;SDS011;62304;47.662;18.324;2022-09-27T08:13:32;15.55;;;9.40;;
73951;SDS011;62304;47.662;18.324;2022-09-27T08:16:35;12.57;;;7.22;;
73951;SDS011;62304;47.662;18.324;2022-09-27T08:19:42;16.23;;;10.33;;
73951;SDS011;62304;47.662;18.324;2022-09-27T08:22:47;19.73;;;11.60;;
73951;SDS011;62304;47.662;18.324;2022-09-27T08:25:50;12.00;;;6.87;;
73951;SDS011;62304;47.662;18.324;2022-09-27T08:28:56;17.33;;;10.15;;
73951;SDS011;62304;47.662;18.324;2022-09-27T08:31:59;22.85;;;10.80;;
73951;SDS011;62304;47.662;18.324;2022-09-27T08:35:03;18.80;;;10.13;;
73951;SDS011;62304;47.662;18.324;2022-09-27T08:38:08;13.27;;;7.90;;
73951;SDS011;62304;47.662;18.324;2022-09-27T08:41:15;19.08;;;11.48;;
73951;SDS011;62304;47.662;18.324;2022-09-27T08:47:57;19.05;;;10.93;;
73951;SDS011;62304;47.662;18.324;2022-09-27T08:51:05;18.70;;;11.90;;
73951;SDS011;62304;47.662;18.324;2022-09-27T08:57:13;19.65;;;12.43;;
73951;SDS011;62304;47.662;18.324;2022-09-27T09:00:17;20.73;;;11.80;;
73951;SDS011;62304;47.662;18.324;2022-09-27T09:03:21;18.80;;;11.18;;
73951;SDS011;62304;47.662;18.324;2022-09-27T09:06:38;19.40;;;11.63;;
73951;SDS011;62304;47.662;18.324;2022-09-27T09:20:49;15.32;;;10.45;;
73951;SDS011;62304;47.662;18.324;2022-09-27T09:27:53;11.90;;;7.07;;
73951;SDS011;62304;47.662;18.324;2022-09-27T09:34:28;12.93;;;6.47;;
73951;SDS011;62304;47.662;18.324;2022-09-27T09:37:52;17.67;;;8.82;;
73951;SDS011;62304;47.662;18.324;2022-09-27T09:41:20;16.63;;;9.30;;
73951;SDS011;62304;47.662;18.324;2022-09-27T09:44:31;12.43;;;5.83;;
73951;SDS011;62304;47.662;18.324;2022-09-27T09:47:45;15.50;;;9.05;;
73951;SDS011;62304;47.662;18.324;2022-09-27T09:50:58;18.23;;;9.55;;
73951;SDS011;62304;47.662;18.324;2022-09-27T09:57:14;17.93;;;9.90;;
73951;SDS011;62304;47.662;18.324;2022-09-27T10:00:22;20.27;;;10.23;;
73951;SDS011;62304;47.662;18.324;2022-09-27T10:03:25;17.37;;;9.50;;
73951;SDS011;62304;47.662;18.324;2022-09-27T10:06:29;25.20;;;9.60;;
73951;SDS011;62304;47.662;18.324;2022-09-27T10:09:33;10.70;;;6.55;;
73951;SDS011;62304;47.662;18.324;2022-09-27T10:12:42;18.83;;;8.97;;
73951;SDS011;62304;47.662;18.324;2022-09-27T10:15:52;13.77;;;7.53;;
73951;SDS011;62304;47.662;18.324;2022-09-27T10:19:04;14.10;;;5.68;;
73951;SDS011;62304;47.662;18.324;2022-09-27T10:22:21;21.08;;;8.63;;
73951;SDS011;62304;47.662;18.324;2022-09-27T10:25:44;13.65;;;7.32;;
73951;SDS011;62304;47.662;18.324;2022-09-27T10:28:48;13.53;;;6.23;;
73951;SDS011;62304;47.662;18.324;2022-09-27T10:31:53;11.53;;;6.63;;
73951;SDS011;62304;47.662;18.324;2022-09-27T10:38:33;33.60;;;14.48;;
73951;SDS011;62304;47.662;18.324;2022-09-27T10:41:40;17.05;;;7.55;;
73951;SDS011;62304;47.662;18.324;2022-09-27T10:44:44;16.27;;;7.37;;
73951;SDS011;62304;47.662;18.324;2022-09-27T10:47:48;18.37;;;9.10;;
73951;SDS011;62304;47.662;18.324;2022-09-27T10:50:59;18.77;;;8.63;;
73951;SDS011;62304;47.662;18.324;2022-09-27T10:54:05;16.12;;;8.00;;
73951;SDS011;62304;47.662;18.324;2022-09-27T10:57:24;20.98;;;9.27;;
73951;SDS011;62304;47.662;18.324;2022-09-27T11:03:36;20.37;;;9.77;;
73951;SDS011;62304;47.662;18.324;2022-09-27T11:06:48;13.32;;;6.70;;
73951;SDS011;62304;47.662;18.324;2022-09-27T11:09:57;15.57;;;8.63;;
73951;SDS011;62304;47.662;18.324;2022-09-27T11:13:14;17.55;;;9.43;;
73951;SDS011;62304;47.662;18.324;2022-09-27T11:26:48;14.15;;;6.55;;
73951;SDS011;62304;47.662;18.324;2022-09-27T11:30:08;17.55;;;9.70;;
73951;SDS011;62304;47.662;18.324;2022-09-27T11:33:27;16.23;;;8.20;;
73951;SDS011;62304;47.662;18.324;2022-09-27T11:57:59;17.87;;;8.10;;
73951;SDS011;62304;47.662;18.324;2022-09-27T12:08:11;15.63;;;9.00;;
73951;SDS011;62304;47.662;18.324;2022-09-27T12:11:28;14.50;;;8.47;;
73951;SDS011;62304;47.662;18.324;2022-09-27T12:17:50;17.08;;;8.82;;
73951;SDS011;62304;47.662;18.324;2022-09-27T12:20:58;16.42;;;8.80;;
73951;SDS011;62304;47.662;18.324;2022-09-27T12:24:05;16.63;;;8.00;;
73951;SDS011;62304;47.662;18.324;2022-09-27T12:30:47;6.12;;;2.30;;
73951;SDS011;62304;47.662;18.324;2022-09-27T12:34:18;3.53;;;0.88;;
73951;SDS011;62304;47.662;18.324;2022-09-27T12:37:27;5.57;;;1.00;;
73951;SDS011;62304;47.662;18.324;2022-09-27T12:40:37;2.90;;;0.73;;
73951;SDS011;62304;47.662;18.324;2022-09-27T12:43:53;5.00;;;1.07;;
73951;SDS011;62304;47.662;18.324;2022-09-27T12:47:01;4.50;;;0.90;;
73951;SDS011;62304;47.662;18.324;2022-09-27T12:57:19;7.67;;;2.80;;
73951;SDS011;62304;47.662;18.324;2022-09-27T13:00:30;4.67;;;1.60;;
73951;SDS011;62304;47.662;18.324;2022-09-27T13:13:45;6.30;;;3.77;;
73951;SDS011;62304;47.662;18.324;2022-09-27T13:16:51;4.87;;;1.90;;
73951;SDS011;62304;47.662;18.324;2022-09-27T13:19:55;5.32;;;2.50;;
73951;SDS011;62304;47.662;18.324;2022-09-27T13:22:58;4.15;;;1.50;;
73951;SDS011;62304;47.662;18.324;2022-09-27T13:29:45;3.90;;;1.40;;
73951;SDS011;62304;47.662;18.324;2022-09-27T13:39:26;3.70;;;1.45;;
73951;SDS011;62304;47.662;18.324;2022-09-27T13:42:33;3.53;;;1.30;;
73951;SDS011;62304;47.662;18.324;2022-09-27T13:45:54;4.03;;;1.20;;
73951;SDS011;62304;47.662;18.324;2022-09-27T13:49:10;4.13;;;1.20;;
73951;SDS011;62304;47.662;18.324;2022-09-27T13:52:34;3.85;;;1.12;;
73951;SDS011;62304;47.662;18.324;2022-09-27T14:01:58;3.20;;;1.07;;
73951;SDS011;62304;47.662;18.324;2022-09-27T14:05:22;3.47;;;0.60;;
73951;SDS011;62304;47.662;18.324;2022-09-27T14:08:37;3.72;;;0.55;;
73951;SDS011;62304;47.662;18.324;2022-09-27T14:11:49;3.67;;;0.70;;
73951;SDS011;62304;47.662;18.324;2022-09-27T14:14:56;3.25;;;0.60;;
73951;SDS011;62304;47.662;18.324;2022-09-27T14:18:04;3.17;;;0.70;;
73951;SDS011;62304;47.662;18.324;2022-09-27T14:21:20;12.33;;;1.00;;
73951;SDS011;62304;47.662;18.324;2022-09-27T14:27:39;8.27;;;2.47;;
73951;SDS011;62304;47.662;18.324;2022-09-27T14:30:43;3.83;;;1.02;;
73951;SDS011;62304;47.662;18.324;2022-09-27T14:33:49;8.93;;;2.97;;
73951;SDS011;62304;47.662;18.324;2022-09-27T14:36:53;4.30;;;1.50;;
73951;SDS011;62304;47.662;18.324;2022-09-27T14:40:18;5.07;;;1.83;;
73951;SDS011;62304;47.662;18.324;2022-09-27T14:43:22;9.30;;;3.40;;
73951;SDS011;62304;47.662;18.324;2022-09-27T14:46:27;7.00;;;2.90;;
73951;SDS011;62304;47.662;18.324;2022-09-27T14:49:32;4.13;;;1.40;;
73951;SDS011;62304;47.662;18.324;2022-09-27T14:52:37;4.70;;;1.80;;
73951;SDS011;62304;47.662;18.324;2022-09-27T14:55:42;3.58;;;1.30;;
73951;SDS011;62304;47.662;18.324;2022-09-27T14:58:49;3.92;;;1.37;;
73951;SDS011;62304;47.662;18.324;2022-09-27T15:02:07;3.35;;;1.00;;
73951;SDS011;62304;47.662;18.324;2022-09-27T15:05:20;5.83;;;1.20;;
73951;SDS011;62304;47.662;18.324;2022-09-27T15:08:28;6.17;;;2.70;;
73951;SDS011;62304;47.662;18.324;2022-09-27T15:11:31;6.10;;;1.75;;
73951;SDS011;62304;47.662;18.324;2022-09-27T15:14:36;6.68;;;2.30;;
73951;SDS011;62304;47.662;18.324;2022-09-27T15:17:44;4.75;;;1.77;;
73951;SDS011;62304;47.662;18.324;2022-09-27T15:20:52;6.77;;;2.27;;
73951;SDS011;62304;47.662;18.324;2022-09-27T15:23:55;4.47;;;1.70;;
73951;SDS011;62304;47.662;18.324;2022-09-27T15:27:00;7.28;;;1.73;;
73951;SDS011;62304;47.662;18.324;2022-09-27T15:30:03;7.32;;;1.95;;
73951;SDS011;62304;47.662;18.324;2022-09-27T15:33:17;8.82;;;3.60;;
73951;SDS011;62304;47.662;18.324;2022-09-27T15:43:36;5.57;;;2.60;;
73951;SDS011;62304;47.662;18.324;2022-09-27T15:46:43;7.07;;;2.90;;
73951;SDS011;62304;47.662;18.324;2022-09-27T15:49:47;6.55;;;2.53;;
73951;SDS011;62304;47.662;18.324;2022-09-27T15:52:52;4.40;;;2.00;;
73951;SDS011;62304;47.662;18.324;2022-09-27T15:55:58;5.13;;;2.10;;
73951;SDS011;62304;47.662;18.324;2022-09-27T15:59:02;7.55;;;2.60;;
73951;SDS011;62304;47.662;18.324;2022-09-27T16:02:13;7.10;;;2.62;;
73951;SDS011;62304;47.662;18.324;2022-09-27T16:05:19;5.85;;;3.05;;
73951;SDS011;62304;47.662;18.324;2022-09-27T16:08:22;6.50;;;3.20;;
73951;SDS011;62304;47.662;18.324;2022-09-27T16:11:26;11.40;;;5.57;;
73951;SDS011;62304;47.662;18.324;2022-09-27T16:14:28;8.93;;;4.70;;
73951;SDS011;62304;47.662;18.324;2022-09-27T16:17:31;5.95;;;3.03;;
73951;SDS011;62304;47.662;18.324;2022-09-27T16:20:34;4.93;;;2.45;;
73951;SDS011;62304;47.662;18.324;2022-09-27T16:23:39;7.83;;;3.07;;
73951;SDS011;62304;47.662;18.324;2022-09-27T16:26:42;5.40;;;2.50;;
73951;SDS011;62304;47.662;18.324;2022-09-27T16:29:45;5.43;;;2.80;;
73951;SDS011;62304;47.662;18.324;2022-09-27T16:32:47;5.35;;;2.90;;
73951;SDS011;62304;47.662;18.324;2022-09-27T16:35:51;6.95;;;3.90;;
73951;SDS011;62304;47.662;18.324;2022-09-27T16:38:53;10.50;;;5.90;;
73951;SDS011;62304;47.662;18.324;2022-09-27T16:41:56;12.57;;;7.10;;
73951;SDS011;62304;47.662;18.324;2022-09-27T16:45:01;7.80;;;3.80;;
73951;SDS011;62304;47.662;18.324;2022-09-27T16:48:11;8.77;;;4.03;;
73951;SDS011;62304;47.662;18.324;2022-09-27T16:51:17;7.03;;;3.25;;
73951;SDS011;62304;47.662;18.324;2022-09-27T16:54:41;7.10;;;4.40;;
73951;SDS011;62304;47.662;18.324;2022-09-27T16:57:48;6.77;;;4.07;;
73951;SDS011;62304;47.662;18.324;2022-09-27T17:00:55;9.73;;;4.87;;
73951;SDS011;62304;47.662;18.324;2022-09-27T17:03:59;8.98;;;5.20;;
73951;SDS011;62304;47.662;18.324;2022-09-27T17:07:03;26.73;;;7.90;;
73951;SDS011;62304;47.662;18.324;2022-09-27T17:10:06;21.60;;;7.23;;
73951;SDS011;62304;47.662;18.324;2022-09-27T17:13:09;11.10;;;5.90;;
73951;SDS011;62304;47.662;18.324;2022-09-27T17:16:12;17.08;;;8.60;;
73951;SDS011;62304;47.662;18.324;2022-09-27T17:19:15;12.95;;;7.05;;
73951;SDS011;62304;47.662;18.324;2022-09-27T17:22:20;14.95;;;7.60;;
73951;SDS011;62304;47.662;18.324;2022-09-27T17:25:24;14.73;;;9.03;;
73951;SDS011;62304;47.662;18.324;2022-09-27T17:28:27;22.17;;;10.47;;
73951;SDS011;62304;47.662;18.324;2022-09-27T17:31:30;75.97;;;21.45;;
73951;SDS011;62304;47.662;18.324;2022-09-27T17:34:36;65.47;;;18.42;;
73951;SDS011;62304;47.662;18.324;2022-09-27T17:37:46;66.75;;;18.85;;
73951;SDS011;62304;47.662;18.324;2022-09-27T17:40:58;51.10;;;15.63;;
73951;SDS011;62304;47.662;18.324;2022-09-27T17:44:02;70.70;;;20.53;;
73951;SDS011;62304;47.662;18.324;2022-09-27T17:47:05;68.95;;;19.30;;
73951;SDS011;62304;47.662;18.324;2022-09-27T17:50:26;50.33;;;16.30;;
73951;SDS011;62304;47.662;18.324;2022-09-27T17:53:29;42.05;;;13.82;;
73951;SDS011;62304;47.662;18.324;2022-09-27T17:56:39;34.50;;;13.10;;
73951;SDS011;62304;47.662;18.324;2022-09-27T17:59:43;29.60;;;12.95;;
73951;SDS011;62304;47.662;18.324;2022-09-27T18:02:49;29.67;;;14.60;;
73951;SDS011;62304;47.662;18.324;2022-09-27T18:05:53;26.67;;;12.90;;
73951;SDS011;62304;47.662;18.324;2022-09-27T18:08:55;24.47;;;11.83;;
73951;SDS011;62304;47.662;18.324;2022-09-27T18:11:58;23.25;;;10.75;;
73951;SDS011;62304;47.662;18.324;2022-09-27T18:15:01;19.75;;;10.48;;
73951;SDS011;62304;47.662;18.324;2022-09-27T18:18:05;14.85;;;9.38;;
73951;SDS011;62304;47.662;18.324;2022-09-27T18:21:09;15.18;;;9.70;;
73951;SDS011;62304;47.662;18.324;2022-09-27T18:24:20;14.10;;;9.10;;
73951;SDS011;62304;47.662;18.324;2022-09-27T18:27:24;13.25;;;8.50;;
73951;SDS011;62304;47.662;18.324;2022-09-27T18:30:27;10.93;;;6.68;;
73951;SDS011;62304;47.662;18.324;2022-09-27T18:33:30;9.40;;;5.95;;
73951;SDS011;62304;47.662;18.324;2022-09-27T18:36:35;9.45;;;5.97;;
73951;SDS011;62304;47.662;18.324;2022-09-27T18:39:38;10.93;;;6.43;;
73951;SDS011;62304;47.662;18.324;2022-09-27T18:42:42;11.38;;;5.75;;
73951;SDS011;62304;47.662;18.324;2022-09-27T18:45:45;7.30;;;4.57;;
73951;SDS011;62304;47.662;18.324;2022-09-27T18:48:49;9.07;;;4.53;;
73951;SDS011;62304;47.662;18.324;2022-09-27T18:51:52;6.10;;;3.80;;
73951;SDS011;62304;47.662;18.324;2022-09-27T18:54:56;6.83;;;4.10;;
73951;SDS011;62304;47.662;18.324;2022-09-27T18:58:01;6.30;;;3.35;;
73951;SDS011;62304;47.662;18.324;2022-09-27T19:01:05;6.10;;;3.35;;
73951;SDS011;62304;47.662;18.324;2022-09-27T19:04:09;5.70;;;2.83;;
73951;SDS011;62304;47.662;18.324;2022-09-27T19:07:13;4.95;;;2.53;;
73951;SDS011;62304;47.662;18.324;2022-09-27T19:10:16;5.70;;;2.50;;
73951;SDS011;62304;47.662;18.324;2022-09-27T19:13:19;5.62;;;2.20;;
73951;SDS011;62304;47.662;18.324;2022-09-27T19:16:29;5.15;;;2.85;;
73951;SDS011;62304;47.662;18.324;2022-09-27T19:19:33;4.82;;;2.50;;
73951;SDS011;62304;47.662;18.324;2022-09-27T19:22:36;4.70;;;2.42;;
73951;SDS011;62304;47.662;18.324;2022-09-27T19:25:41;4.57;;;2.20;;
73951;SDS011;62304;47.662;18.324;2022-09-27T19:28:44;4.18;;;2.10;;
73951;SDS011;62304;47.662;18.324;2022-09-27T19:31:48;5.00;;;1.87;;
73951;SDS011;62304;47.662;18.324;2022-09-27T19:34:51;3.62;;;1.40;;
73951;SDS011;62304;47.662;18.324;2022-09-27T19:37:55;4.12;;;1.40;;
73951;SDS011;62304;47.662;18.324;2022-09-27T19:40:59;3.60;;;1.37;;
73951;SDS011;62304;47.662;18.324;2022-09-27T19:44:03;3.22;;;1.15;;
73951;SDS011;62304;47.662;18.324;2022-09-27T19:47:09;2.90;;;1.00;;
73951;SDS011;62304;47.662;18.324;2022-09-27T19:50:12;3.55;;;1.00;;
73951;SDS011;62304;47.662;18.324;2022-09-27T19:53:15;3.22;;;1.05;;
73951;SDS011;62304;47.662;18.324;2022-09-27T19:56:19;4.10;;;0.90;;
73951;SDS011;62304;47.662;18.324;2022-09-27T19:59:23;3.35;;;1.00;;
73951;SDS011;62304;47.662;18.324;2022-09-27T20:02:26;3.30;;;1.00;;
73951;SDS011;62304;47.662;18.324;2022-09-27T20:05:31;3.45;;;1.00;;
73951;SDS011;62304;47.662;18.324;2022-09-27T20:08:35;2.45;;;0.80;;
73951;SDS011;62304;47.662;18.324;2022-09-27T20:11:38;2.67;;;0.80;;
73951;SDS011;62304;47.662;18.324;2022-09-27T20:14:41;2.80;;;0.77;;
73951;SDS011;62304;47.662;18.324;2022-09-27T20:17:45;2.67;;;0.90;;
73951;SDS011;62304;47.662;18.324;2022-09-27T20:20:48;3.05;;;0.88;;
73951;SDS011;62304;47.662;18.324;2022-09-27T20:23:52;3.03;;;1.05;;
73951;SDS011;62304;47.662;18.324;2022-09-27T20:26:57;3.17;;;0.87;;
73951;SDS011;62304;47.662;18.324;2022-09-27T20:30:01;3.10;;;0.80;;
73951;SDS011;62304;47.662;18.324;2022-09-27T20:33:05;3.62;;;0.80;;
73951;SDS011;62304;47.662;18.324;2022-09-27T20:36:30;3.00;;;0.77;;
73951;SDS011;62304;47.662;18.324;2022-09-27T20:39:34;2.92;;;0.90;;
73951;SDS011;62304;47.662;18.324;2022-09-27T20:42:37;2.90;;;0.80;;
73951;SDS011;62304;47.662;18.324;2022-09-27T20:45:40;4.00;;;1.15;;